createdAt,value
2022-11-17T00:01:44.051Z,2.92
2022-11-17T00:06:46.114Z,3.28
2022-11-17T00:12:07.103Z,3.60
2022-11-17T00:17:11.503Z,3.40
2022-11-17T00:22:13.857Z,3.35
2022-11-17T00:27:16.152Z,3.78
2022-11-17T00:32:37.376Z,3.47
2022-11-17T00:37:59.425Z,4.57
2022-11-17T00:43:01.426Z,4.72
2022-11-17T00:48:03.806Z,3.78
2022-11-17T00:53:05.861Z,4.68
2022-11-17T00:58:08.127Z,4.15
2022-11-17T01:03:10.121Z,4.32
2022-11-17T01:08:12.152Z,3.55
2022-11-17T01:13:17.442Z,3.47
2022-11-17T01:18:19.452Z,3.50
2022-11-17T01:23:21.493Z,2.70
2022-11-17T01:28:23.467Z,3.10
2022-11-17T01:33:25.462Z,3.05
2022-11-17T01:38:27.489Z,2.90
2022-11-17T01:43:40.956Z,2.60
2022-11-17T01:48:45.128Z,2.22
2022-11-17T01:53:50.279Z,1.77
2022-11-17T01:59:00.536Z,2.03
2022-11-17T02:04:02.654Z,1.58
2022-11-17T02:09:04.727Z,1.20
2022-11-17T02:14:06.991Z,1.52
2022-11-17T02:19:11.417Z,1.20
2022-11-17T02:24:41.262Z,1.20
2022-11-17T02:29:46.075Z,1.13
2022-11-17T02:35:02.703Z,1.10
2022-11-17T02:40:14.154Z,1.10
2022-11-17T02:45:24.829Z,1.20
2022-11-17T02:50:28.861Z,1.00
2022-11-17T02:55:34.714Z,1.10
2022-11-17T03:00:46.023Z,1.08
2022-11-17T03:05:51.270Z,1.27
2022-11-17T03:10:59.815Z,1.10
2022-11-17T03:16:19.956Z,0.80
2022-11-17T03:21:28.856Z,1.00
2022-11-17T03:26:34.880Z,1.00
2022-11-17T03:31:38.802Z,1.00
2022-11-17T03:36:47.037Z,0.80
2022-11-17T03:41:52.950Z,0.90
2022-11-17T03:46:58.486Z,0.82
2022-11-17T03:52:01.070Z,0.70
2022-11-17T03:57:14.190Z,0.80
2022-11-17T04:02:20.755Z,0.80
2022-11-17T04:07:22.958Z,0.80
2022-11-17T04:12:43.892Z,1.00
2022-11-17T04:17:46.057Z,0.73
2022-11-17T04:23:06.926Z,1.27
2022-11-17T04:28:27.576Z,1.23
2022-11-17T04:33:29.671Z,0.90
2022-11-17T04:38:31.816Z,1.02
2022-11-17T04:43:34.201Z,0.73
2022-11-17T04:48:36.459Z,0.88
2022-11-17T04:53:38.643Z,1.20
2022-11-17T04:58:41.339Z,1.00
2022-11-17T05:03:45.167Z,1.10
2022-11-17T05:08:47.846Z,1.27
2022-11-17T05:13:51.091Z,1.13
2022-11-17T05:18:53.559Z,1.45
2022-11-17T05:23:56.556Z,1.10
2022-11-17T05:29:00.720Z,1.20
2022-11-17T05:34:04.808Z,1.25
2022-11-17T05:39:08.004Z,1.63
2022-11-17T05:44:10.039Z,1.30
2022-11-17T05:49:12.047Z,1.65
2022-11-17T05:54:14.130Z,1.27
2022-11-17T05:59:23.344Z,1.23
2022-11-17T06:04:28.565Z,1.77
2022-11-17T06:09:36.540Z,1.63
2022-11-17T06:14:39.668Z,1.35
2022-11-17T06:19:46.030Z,1.00
2022-11-17T06:24:48.224Z,1.50
2022-11-17T06:29:50.367Z,1.17
2022-11-17T06:34:56.107Z,1.20
2022-11-17T06:39:58.539Z,0.80
2022-11-17T06:45:00.490Z,1.05
2022-11-17T06:50:02.963Z,0.70
2022-11-17T06:55:05.690Z,0.80
2022-11-17T07:00:08.374Z,0.80
2022-11-17T07:05:10.544Z,0.80
2022-11-17T07:10:12.665Z,0.90
2022-11-17T07:15:14.934Z,1.10
2022-11-17T07:20:17.658Z,1.33
2022-11-17T07:25:22.554Z,1.40
2022-11-17T07:30:25.205Z,0.90
2022-11-17T07:35:28.008Z,0.90
2022-11-17T07:45:50.284Z,1.15
2022-11-17T07:50:52.551Z,1.10
2022-11-17T07:55:55.473Z,1.08
2022-11-17T08:00:57.760Z,1.23
2022-11-17T08:06:07.478Z,1.00
2022-11-17T08:11:11.696Z,1.13
2022-11-17T08:16:14.322Z,1.25
2022-11-17T08:21:16.350Z,1.00
2022-11-17T08:26:20.814Z,1.10
2022-11-17T08:31:23.042Z,1.17
2022-11-17T08:36:25.157Z,1.15
2022-11-17T08:41:27.253Z,0.80
2022-11-17T08:46:29.359Z,0.93
2022-11-17T08:51:31.428Z,1.00
2022-11-17T08:56:33.517Z,1.20
2022-11-17T09:01:35.568Z,1.42
2022-11-17T09:06:37.928Z,1.45
2022-11-17T09:11:39.949Z,1.02
2022-11-17T09:16:42.004Z,1.02
2022-11-17T09:21:44.681Z,1.15
2022-11-17T09:26:46.751Z,1.23
2022-11-17T09:31:48.936Z,1.17
2022-11-17T09:36:51.036Z,1.02
2022-11-17T09:41:56.114Z,1.42
2022-11-17T09:47:20.741Z,1.30
2022-11-17T09:52:35.808Z,1.42
2022-11-17T09:57:43.002Z,1.30
2022-11-17T10:02:45.698Z,1.70
2022-11-17T10:07:53.746Z,1.42
2022-11-17T10:12:58.280Z,1.30
2022-11-17T10:18:00.308Z,1.50
2022-11-17T10:23:03.545Z,1.35
2022-11-17T10:28:08.372Z,1.08
2022-11-17T10:33:13.175Z,1.02
2022-11-17T10:38:20.883Z,1.02
2022-11-17T10:43:27.317Z,1.45
2022-11-17T10:48:32.433Z,1.05
2022-11-17T10:53:41.371Z,1.40
2022-11-17T10:59:16.608Z,1.17
2022-11-17T11:04:35.462Z,1.70
2022-11-17T11:09:45.236Z,1.40
2022-11-17T11:14:52.573Z,1.40
2022-11-17T11:19:55.459Z,1.20
2022-11-17T11:25:16.024Z,1.02
2022-11-17T11:30:19.297Z,1.20
2022-11-17T11:35:27.145Z,1.55
2022-11-17T11:40:35.830Z,1.13
2022-11-17T11:45:45.971Z,1.23
2022-11-17T11:50:59.119Z,0.90
2022-11-17T11:56:22.104Z,1.02
2022-11-17T12:01:26.209Z,1.10
2022-11-17T12:06:53.690Z,1.40
2022-11-17T12:12:02.565Z,0.90
2022-11-17T12:17:13.419Z,0.70
2022-11-17T12:22:37.971Z,1.40
2022-11-17T12:27:40.799Z,1.33
2022-11-17T12:32:48.553Z,1.60
2022-11-17T12:38:15.337Z,1.10
2022-11-17T12:43:23.291Z,0.85
2022-11-17T12:48:35.024Z,1.20
2022-11-17T12:53:37.374Z,0.90
2022-11-17T12:58:48.699Z,1.15
2022-11-17T13:04:12.988Z,1.17
2022-11-17T13:09:23.021Z,0.75
2022-11-17T13:14:25.064Z,1.40
2022-11-17T13:19:39.598Z,0.98
2022-11-17T13:24:47.350Z,1.02
2022-11-17T13:29:50.565Z,1.10
2022-11-17T13:34:57.875Z,1.20
2022-11-17T13:40:21.530Z,0.80
2022-11-17T13:45:23.875Z,1.00
2022-11-17T13:50:31.864Z,0.70
2022-11-17T13:55:34.441Z,0.85
2022-11-17T14:00:36.459Z,0.90
2022-11-17T14:05:55.070Z,0.73
2022-11-17T14:11:12.264Z,1.00
2022-11-17T14:16:24.914Z,0.90
2022-11-17T14:21:28.802Z,0.70
2022-11-17T14:26:31.085Z,0.90
2022-11-17T14:31:33.365Z,0.95
2022-11-17T14:36:38.733Z,1.00
2022-11-17T14:41:41.932Z,1.00
2022-11-17T14:46:44.175Z,1.63
2022-11-17T14:51:50.076Z,1.17
2022-11-17T14:56:52.276Z,0.88
2022-11-17T15:01:54.513Z,1.20
2022-11-17T15:06:57.117Z,1.00
2022-11-17T15:11:59.320Z,1.00
2022-11-17T15:17:01.498Z,1.42
2022-11-17T15:22:03.494Z,1.35
2022-11-17T15:27:05.544Z,1.30
2022-11-17T15:32:07.925Z,1.13
2022-11-17T15:37:10.065Z,1.30
2022-11-17T15:42:12.060Z,0.95
2022-11-17T15:47:14.211Z,1.20
2022-11-17T15:52:19.481Z,1.40
2022-11-17T15:57:27.681Z,1.25
2022-11-17T16:02:29.769Z,1.20
2022-11-17T16:07:31.921Z,1.35
2022-11-17T16:12:34.171Z,1.08
2022-11-17T16:17:36.343Z,1.05
2022-11-17T16:22:38.336Z,1.23
2022-11-17T16:27:40.512Z,1.20
2022-11-17T16:32:42.654Z,1.20
2022-11-17T16:37:44.698Z,1.33
2022-11-17T16:42:47.054Z,1.40
2022-11-17T16:47:49.088Z,1.00
2022-11-17T16:52:51.276Z,1.02
2022-11-17T16:57:53.338Z,1.00
2022-11-17T17:02:57.168Z,1.30
2022-11-17T17:07:59.340Z,1.20
2022-11-17T17:13:01.474Z,1.50
2022-11-17T17:18:04.912Z,1.60
2022-11-17T17:23:07.390Z,1.08
2022-11-17T17:28:09.477Z,1.70
2022-11-17T17:33:11.868Z,1.30
2022-11-17T17:38:13.961Z,1.60
2022-11-17T17:43:16.277Z,2.00
2022-11-17T17:48:18.384Z,1.80
2022-11-17T17:53:20.424Z,1.58
2022-11-17T17:58:22.515Z,1.67
2022-11-17T18:03:24.693Z,2.10
2022-11-17T18:08:27.260Z,1.90
2022-11-17T18:13:34.704Z,1.98
2022-11-17T18:18:39.658Z,2.40
2022-11-17T18:23:43.050Z,1.63
2022-11-17T18:28:56.446Z,1.85
2022-11-17T18:34:03.128Z,1.65
2022-11-17T18:39:05.280Z,1.52
2022-11-17T18:44:07.615Z,1.77
2022-11-17T18:49:10.000Z,2.10
2022-11-17T18:54:12.806Z,1.42
2022-11-17T18:59:18.675Z,2.10
2022-11-17T19:04:21.107Z,1.90
2022-11-17T19:09:23.350Z,1.73
2022-11-17T19:14:25.577Z,1.88
2022-11-17T19:19:27.745Z,1.98
2022-11-17T19:24:30.068Z,1.83
2022-11-17T19:29:32.187Z,1.88
2022-11-17T19:34:34.400Z,3.33
2022-11-17T19:39:36.553Z,2.70
2022-11-17T19:44:38.670Z,3.00
2022-11-17T19:49:41.309Z,2.40
2022-11-17T19:54:43.445Z,2.50
2022-11-17T19:59:45.620Z,2.33
2022-11-17T20:04:47.853Z,2.55
2022-11-17T20:09:50.015Z,2.58
2022-11-17T20:14:52.380Z,2.67
2022-11-17T20:19:54.581Z,2.80
2022-11-17T20:25:02.036Z,2.78
2022-11-17T20:30:07.211Z,2.80
2022-11-17T20:35:11.421Z,2.35
2022-11-17T20:40:13.765Z,3.13
2022-11-17T20:45:15.908Z,3.22
2022-11-17T20:50:18.071Z,2.22
2022-11-17T20:55:20.192Z,3.47
2022-11-17T21:00:22.255Z,3.60
2022-11-17T21:05:24.325Z,3.65
2022-11-17T21:10:26.373Z,3.90
2022-11-17T21:15:28.836Z,3.78
2022-11-17T21:20:30.816Z,3.40
2022-11-17T21:25:35.480Z,3.70
2022-11-17T21:30:37.503Z,3.88
2022-11-17T21:35:39.567Z,3.10
2022-11-17T21:40:41.595Z,3.88
2022-11-17T21:45:43.663Z,3.60
2022-11-17T21:50:46.553Z,3.45
2022-11-17T21:55:48.554Z,3.65
2022-11-17T22:00:50.765Z,3.60
2022-11-17T22:05:54.836Z,3.50
2022-11-17T22:11:03.412Z,3.20
2022-11-17T22:16:14.818Z,3.80
2022-11-17T22:21:16.899Z,2.60
2022-11-17T22:26:18.889Z,2.83
2022-11-17T22:31:21.787Z,3.30
2022-11-17T22:36:23.852Z,3.10
2022-11-17T22:41:26.322Z,2.80
2022-11-17T22:46:28.872Z,2.60
2022-11-17T22:51:49.289Z,3.83
2022-11-17T22:56:51.532Z,3.03
2022-11-17T23:01:54.389Z,2.90
2022-11-17T23:06:56.468Z,2.65
2022-11-17T23:11:58.562Z,2.55
2022-11-17T23:17:00.715Z,2.55
2022-11-17T23:22:02.757Z,2.90
2022-11-17T23:27:04.800Z,2.83
2022-11-17T23:32:06.907Z,2.83
2022-11-17T23:37:08.935Z,2.65
2022-11-17T23:42:10.919Z,2.38
2022-11-17T23:47:12.958Z,3.20
2022-11-17T23:52:15.040Z,2.65
2022-11-17T23:57:17.154Z,3.03
